sensor_id;sensor_type;location;lat;lon;timestamp;P1;durP1;ratioP1;P2;durP2;ratioP2
31238;SDS011;17871;31.584;74.450;2022-10-16T00:01:48;134.18;;;55.42;;
31238;SDS011;17871;31.584;74.450;2022-10-16T00:04:17;119.70;;;57.15;;
31238;SDS011;17871;31.584;74.450;2022-10-16T00:06:46;118.65;;;57.47;;
31238;SDS011;17871;31.584;74.450;2022-10-16T00:09:15;138.15;;;61.67;;
31238;SDS011;17871;31.584;74.450;2022-10-16T00:11:45;139.20;;;59.20;;
31238;SDS011;17871;31.584;74.450;2022-10-16T00:14:15;154.02;;;68.72;;
31238;SDS011;17871;31.584;74.450;2022-10-16T00:16:44;157.70;;;68.95;;
31238;SDS011;17871;31.584;74.450;2022-10-16T00:19:13;133.77;;;66.78;;
31238;SDS011;17871;31.584;74.450;2022-10-16T00:21:42;157.40;;;71.82;;
31238;SDS011;17871;31.584;74.450;2022-10-16T00:24:11;167.35;;;73.90;;
31238;SDS011;17871;31.584;74.450;2022-10-16T00:26:40;169.93;;;75.13;;
31238;SDS011;17871;31.584;74.450;2022-10-16T00:29:09;166.80;;;72.85;;
31238;SDS011;17871;31.584;74.450;2022-10-16T00:31:38;156.65;;;69.35;;
31238;SDS011;17871;31.584;74.450;2022-10-16T00:34:08;149.30;;;69.93;;
31238;SDS011;17871;31.584;74.450;2022-10-16T00:36:37;167.35;;;73.75;;
31238;SDS011;17871;31.584;74.450;2022-10-16T00:39:06;153.68;;;72.07;;
31238;SDS011;17871;31.584;74.450;2022-10-16T00:41:35;144.52;;;70.38;;
31238;SDS011;17871;31.584;74.450;2022-10-16T00:44:40;154.60;;;71.30;;
31238;SDS011;17871;31.584;74.450;2022-10-16T00:47:32;207.68;;;76.75;;
31238;SDS011;17871;31.584;74.450;2022-10-16T00:50:11;170.52;;;76.30;;
31238;SDS011;17871;31.584;74.450;2022-10-16T00:52:48;166.93;;;74.15;;
31238;SDS011;17871;31.584;74.450;2022-10-16T00:55:20;146.90;;;71.50;;
31238;SDS011;17871;31.584;74.450;2022-10-16T00:57:49;161.68;;;75.68;;
31238;SDS011;17871;31.584;74.450;2022-10-16T01:00:21;157.40;;;71.63;;
31238;SDS011;17871;31.584;74.450;2022-10-16T01:02:56;143.25;;;71.63;;
31238;SDS011;17871;31.584;74.450;2022-10-16T01:05:38;156.32;;;73.43;;
31238;SDS011;17871;31.584;74.450;2022-10-16T01:08:39;153.20;;;71.25;;
31238;SDS011;17871;31.584;74.450;2022-10-16T01:11:24;144.93;;;69.90;;
31238;SDS011;17871;31.584;74.450;2022-10-16T01:14:02;152.68;;;71.65;;
31238;SDS011;17871;31.584;74.450;2022-10-16T01:16:43;159.18;;;72.88;;
31238;SDS011;17871;31.584;74.450;2022-10-16T01:22:08;156.60;;;70.45;;
31238;SDS011;17871;31.584;74.450;2022-10-16T01:24:40;137.32;;;68.28;;
31238;SDS011;17871;31.584;74.450;2022-10-16T01:27:23;146.65;;;68.65;;
31238;SDS011;17871;31.584;74.450;2022-10-16T01:29:59;137.63;;;67.55;;
31238;SDS011;17871;31.584;74.450;2022-10-16T01:32:44;146.47;;;70.87;;
31238;SDS011;17871;31.584;74.450;2022-10-16T01:35:27;147.77;;;69.80;;
31238;SDS011;17871;31.584;74.450;2022-10-16T01:38:10;134.75;;;67.40;;
31238;SDS011;17871;31.584;74.450;2022-10-16T01:40:51;143.50;;;69.32;;
31238;SDS011;17871;31.584;74.450;2022-10-16T01:43:30;137.90;;;68.15;;
31238;SDS011;17871;31.584;74.450;2022-10-16T01:46:05;130.18;;;68.47;;
31238;SDS011;17871;31.584;74.450;2022-10-16T01:48:38;125.68;;;64.20;;
31238;SDS011;17871;31.584;74.450;2022-10-16T01:53:43;138.80;;;64.40;;
31238;SDS011;17871;31.584;74.450;2022-10-16T01:56:17;159.48;;;65.68;;
31238;SDS011;17871;31.584;74.450;2022-10-16T01:58:53;137.15;;;68.57;;
31238;SDS011;17871;31.584;74.450;2022-10-16T02:01:27;165.98;;;66.55;;
31238;SDS011;17871;31.584;74.450;2022-10-16T02:04:03;144.07;;;69.13;;
31238;SDS011;17871;31.584;74.450;2022-10-16T02:06:38;145.40;;;64.20;;
31238;SDS011;17871;31.584;74.450;2022-10-16T02:09:10;130.68;;;64.30;;
31238;SDS011;17871;31.584;74.450;2022-10-16T02:11:42;150.52;;;67.43;;
31238;SDS011;17871;31.584;74.450;2022-10-16T02:14:14;136.27;;;61.00;;
31238;SDS011;17871;31.584;74.450;2022-10-16T02:16:45;131.15;;;62.95;;
31238;SDS011;17871;31.584;74.450;2022-10-16T02:19:16;155.43;;;67.40;;
31238;SDS011;17871;31.584;74.450;2022-10-16T02:24:51;124.32;;;67.18;;
31238;SDS011;17871;31.584;74.450;2022-10-16T02:27:43;151.35;;;72.22;;
31238;SDS011;17871;31.584;74.450;2022-10-16T02:30:36;160.55;;;75.88;;
31238;SDS011;17871;31.584;74.450;2022-10-16T02:33:32;179.65;;;75.88;;
31238;SDS011;17871;31.584;74.450;2022-10-16T02:36:05;151.93;;;74.35;;
31238;SDS011;17871;31.584;74.450;2022-10-16T02:38:36;152.68;;;74.70;;
31238;SDS011;17871;31.584;74.450;2022-10-16T02:41:09;149.75;;;77.25;;
31238;SDS011;17871;31.584;74.450;2022-10-16T02:43:39;148.15;;;74.13;;
31238;SDS011;17871;31.584;74.450;2022-10-16T02:46:09;158.05;;;78.93;;
31238;SDS011;17871;31.584;74.450;2022-10-16T02:48:39;182.38;;;79.18;;
31238;SDS011;17871;31.584;74.450;2022-10-16T02:51:10;186.48;;;85.20;;
31238;SDS011;17871;31.584;74.450;2022-10-16T02:53:40;208.85;;;88.57;;
31238;SDS011;17871;31.584;74.450;2022-10-16T02:56:11;213.77;;;94.07;;
31238;SDS011;17871;31.584;74.450;2022-10-16T02:58:42;234.57;;;92.55;;
31238;SDS011;17871;31.584;74.450;2022-10-16T03:01:12;234.65;;;100.80;;
31238;SDS011;17871;31.584;74.450;2022-10-16T03:03:45;255.80;;;109.25;;
31238;SDS011;17871;31.584;74.450;2022-10-16T03:06:16;286.90;;;116.35;;
31238;SDS011;17871;31.584;74.450;2022-10-16T03:08:46;284.88;;;115.97;;
31238;SDS011;17871;31.584;74.450;2022-10-16T03:11:17;268.45;;;113.72;;
31238;SDS011;17871;31.584;74.450;2022-10-16T03:13:49;285.43;;;117.17;;
31238;SDS011;17871;31.584;74.450;2022-10-16T03:16:19;293.30;;;122.35;;
31238;SDS011;17871;31.584;74.450;2022-10-16T03:18:50;286.00;;;121.82;;
31238;SDS011;17871;31.584;74.450;2022-10-16T03:21:20;294.85;;;126.22;;
31238;SDS011;17871;31.584;74.450;2022-10-16T03:23:51;276.52;;;124.75;;
31238;SDS011;17871;31.584;74.450;2022-10-16T03:26:22;303.58;;;127.93;;
31238;SDS011;17871;31.584;74.450;2022-10-16T03:28:52;278.75;;;126.05;;
31238;SDS011;17871;31.584;74.450;2022-10-16T03:31:23;289.23;;;128.13;;
31238;SDS011;17871;31.584;74.450;2022-10-16T03:33:54;284.33;;;126.72;;
31238;SDS011;17871;31.584;74.450;2022-10-16T03:36:26;286.42;;;129.10;;
31238;SDS011;17871;31.584;74.450;2022-10-16T03:38:56;295.27;;;130.45;;
31238;SDS011;17871;31.584;74.450;2022-10-16T03:41:27;296.42;;;133.43;;
31238;SDS011;17871;31.584;74.450;2022-10-16T03:43:58;282.92;;;128.40;;
31238;SDS011;17871;31.584;74.450;2022-10-16T03:46:27;298.33;;;128.52;;
31238;SDS011;17871;31.584;74.450;2022-10-16T03:48:57;295.63;;;129.98;;
31238;SDS011;17871;31.584;74.450;2022-10-16T03:51:26;332.98;;;133.45;;
31238;SDS011;17871;31.584;74.450;2022-10-16T03:53:55;314.05;;;132.95;;
31238;SDS011;17871;31.584;74.450;2022-10-16T03:56:25;326.50;;;135.63;;
31238;SDS011;17871;31.584;74.450;2022-10-16T03:58:55;282.95;;;132.90;;
31238;SDS011;17871;31.584;74.450;2022-10-16T04:01:24;270.75;;;129.10;;
31238;SDS011;17871;31.584;74.450;2022-10-16T04:03:53;287.42;;;128.23;;
31238;SDS011;17871;31.584;74.450;2022-10-16T04:06:22;290.95;;;133.85;;
31238;SDS011;17871;31.584;74.450;2022-10-16T04:08:51;303.00;;;136.30;;
31238;SDS011;17871;31.584;74.450;2022-10-16T04:11:21;310.70;;;129.00;;
31238;SDS011;17871;31.584;74.450;2022-10-16T04:13:50;287.27;;;127.47;;
31238;SDS011;17871;31.584;74.450;2022-10-16T04:16:19;289.83;;;129.52;;
31238;SDS011;17871;31.584;74.450;2022-10-16T04:18:48;281.70;;;129.77;;
31238;SDS011;17871;31.584;74.450;2022-10-16T04:21:17;286.02;;;133.18;;
31238;SDS011;17871;31.584;74.450;2022-10-16T04:23:47;263.08;;;125.72;;
31238;SDS011;17871;31.584;74.450;2022-10-16T04:26:17;256.15;;;118.60;;
31238;SDS011;17871;31.584;74.450;2022-10-16T04:28:46;261.85;;;121.70;;
31238;SDS011;17871;31.584;74.450;2022-10-16T04:31:15;285.35;;;122.60;;
31238;SDS011;17871;31.584;74.450;2022-10-16T04:33:44;259.90;;;117.97;;
31238;SDS011;17871;31.584;74.450;2022-10-16T04:36:14;247.43;;;119.00;;
31238;SDS011;17871;31.584;74.450;2022-10-16T04:38:42;262.52;;;121.28;;
31238;SDS011;17871;31.584;74.450;2022-10-16T04:41:12;265.48;;;123.00;;
31238;SDS011;17871;31.584;74.450;2022-10-16T04:43:41;270.83;;;126.07;;
31238;SDS011;17871;31.584;74.450;2022-10-16T04:46:10;275.45;;;127.00;;
31238;SDS011;17871;31.584;74.450;2022-10-16T04:48:39;269.42;;;128.30;;
31238;SDS011;17871;31.584;74.450;2022-10-16T04:51:08;290.45;;;130.30;;
31238;SDS011;17871;31.584;74.450;2022-10-16T04:53:38;271.40;;;126.20;;
31238;SDS011;17871;31.584;74.450;2022-10-16T04:56:07;259.90;;;125.75;;
31238;SDS011;17871;31.584;74.450;2022-10-16T04:58:36;281.13;;;128.93;;
31238;SDS011;17871;31.584;74.450;2022-10-16T05:01:05;262.42;;;126.03;;
31238;SDS011;17871;31.584;74.450;2022-10-16T05:03:34;285.23;;;126.53;;
31238;SDS011;17871;31.584;74.450;2022-10-16T05:06:05;256.83;;;122.15;;
31238;SDS011;17871;31.584;74.450;2022-10-16T05:08:35;260.13;;;123.18;;
31238;SDS011;17871;31.584;74.450;2022-10-16T05:11:04;250.10;;;119.50;;
31238;SDS011;17871;31.584;74.450;2022-10-16T05:13:33;273.83;;;125.45;;
31238;SDS011;17871;31.584;74.450;2022-10-16T05:16:02;269.70;;;126.20;;
31238;SDS011;17871;31.584;74.450;2022-10-16T05:18:31;262.15;;;122.95;;
31238;SDS011;17871;31.584;74.450;2022-10-16T05:21:00;268.33;;;121.15;;
31238;SDS011;17871;31.584;74.450;2022-10-16T05:23:30;257.73;;;119.53;;
31238;SDS011;17871;31.584;74.450;2022-10-16T05:25:59;247.90;;;116.07;;
31238;SDS011;17871;31.584;74.450;2022-10-16T05:28:29;243.85;;;116.90;;
31238;SDS011;17871;31.584;74.450;2022-10-16T05:30:59;258.40;;;121.97;;
31238;SDS011;17871;31.584;74.450;2022-10-16T05:33:37;300.13;;;122.10;;
31238;SDS011;17871;31.584;74.450;2022-10-16T05:36:07;282.90;;;122.05;;
31238;SDS011;17871;31.584;74.450;2022-10-16T05:38:37;255.90;;;117.65;;
31238;SDS011;17871;31.584;74.450;2022-10-16T05:41:06;250.73;;;117.32;;
31238;SDS011;17871;31.584;74.450;2022-10-16T05:43:36;257.92;;;119.20;;
31238;SDS011;17871;31.584;74.450;2022-10-16T05:46:05;257.40;;;118.82;;
31238;SDS011;17871;31.584;74.450;2022-10-16T05:48:34;251.75;;;112.78;;
31238;SDS011;17871;31.584;74.450;2022-10-16T05:51:04;260.45;;;113.05;;
31238;SDS011;17871;31.584;74.450;2022-10-16T05:53:37;249.50;;;112.85;;
31238;SDS011;17871;31.584;74.450;2022-10-16T05:56:13;214.27;;;105.60;;
31238;SDS011;17871;31.584;74.450;2022-10-16T06:01:16;205.43;;;94.63;;
31238;SDS011;17871;31.584;74.450;2022-10-16T06:03:47;201.52;;;89.55;;
31238;SDS011;17871;31.584;74.450;2022-10-16T06:06:17;195.18;;;91.28;;
31238;SDS011;17871;31.584;74.450;2022-10-16T06:08:48;181.98;;;88.75;;
31238;SDS011;17871;31.584;74.450;2022-10-16T06:11:19;170.00;;;78.63;;
31238;SDS011;17871;31.584;74.450;2022-10-16T06:13:50;169.65;;;73.95;;
31238;SDS011;17871;31.584;74.450;2022-10-16T06:16:20;175.98;;;75.70;;
31238;SDS011;17871;31.584;74.450;2022-10-16T06:18:53;156.00;;;72.95;;
31238;SDS011;17871;31.584;74.450;2022-10-16T06:21:28;142.60;;;67.57;;
31238;SDS011;17871;31.584;74.450;2022-10-16T06:23:58;141.68;;;66.30;;
31238;SDS011;17871;31.584;74.450;2022-10-16T06:26:28;154.15;;;67.05;;
31238;SDS011;17871;31.584;74.450;2022-10-16T06:28:59;152.23;;;62.75;;
31238;SDS011;17871;31.584;74.450;2022-10-16T06:31:29;155.95;;;63.58;;
31238;SDS011;17871;31.584;74.450;2022-10-16T06:34:00;123.43;;;55.45;;
31238;SDS011;17871;31.584;74.450;2022-10-16T06:36:30;107.13;;;48.75;;
31238;SDS011;17871;31.584;74.450;2022-10-16T06:38:59;126.82;;;51.05;;
31238;SDS011;17871;31.584;74.450;2022-10-16T06:41:28;116.80;;;48.60;;
31238;SDS011;17871;31.584;74.450;2022-10-16T06:44:04;102.65;;;47.05;;
31238;SDS011;17871;31.584;74.450;2022-10-16T06:46:35;120.35;;;54.42;;
31238;SDS011;17871;31.584;74.450;2022-10-16T06:49:04;132.90;;;55.22;;
31238;SDS011;17871;31.584;74.450;2022-10-16T06:51:33;118.57;;;47.03;;
31238;SDS011;17871;31.584;74.450;2022-10-16T06:54:09;103.45;;;41.95;;
31238;SDS011;17871;31.584;74.450;2022-10-16T06:56:38;87.97;;;39.28;;
31238;SDS011;17871;31.584;74.450;2022-10-16T06:59:07;89.07;;;40.38;;
31238;SDS011;17871;31.584;74.450;2022-10-16T07:01:36;98.50;;;41.63;;
31238;SDS011;17871;31.584;74.450;2022-10-16T07:04:06;116.18;;;43.42;;
31238;SDS011;17871;31.584;74.450;2022-10-16T07:06:35;128.00;;;43.40;;
31238;SDS011;17871;31.584;74.450;2022-10-16T07:09:05;96.93;;;43.05;;
31238;SDS011;17871;31.584;74.450;2022-10-16T07:11:38;86.85;;;40.50;;
31238;SDS011;17871;31.584;74.450;2022-10-16T07:14:25;89.10;;;42.92;;
31238;SDS011;17871;31.584;74.450;2022-10-16T07:16:55;102.07;;;43.15;;
31238;SDS011;17871;31.584;74.450;2022-10-16T07:19:24;84.15;;;40.83;;
31238;SDS011;17871;31.584;74.450;2022-10-16T07:21:58;77.68;;;34.60;;
31238;SDS011;17871;31.584;74.450;2022-10-16T07:24:27;74.55;;;32.25;;
31238;SDS011;17871;31.584;74.450;2022-10-16T07:26:56;72.45;;;32.17;;
31238;SDS011;17871;31.584;74.450;2022-10-16T07:29:25;84.93;;;37.38;;
31238;SDS011;17871;31.584;74.450;2022-10-16T07:31:55;95.10;;;38.47;;
31238;SDS011;17871;31.584;74.450;2022-10-16T07:34:24;106.32;;;41.15;;
31238;SDS011;17871;31.584;74.450;2022-10-16T07:36:54;151.00;;;44.35;;
31238;SDS011;17871;31.584;74.450;2022-10-16T07:39:23;92.30;;;39.72;;
31238;SDS011;17871;31.584;74.450;2022-10-16T07:41:52;106.70;;;40.50;;
31238;SDS011;17871;31.584;74.450;2022-10-16T07:44:21;93.28;;;39.70;;
31238;SDS011;17871;31.584;74.450;2022-10-16T07:46:50;97.75;;;40.10;;
31238;SDS011;17871;31.584;74.450;2022-10-16T07:49:20;80.45;;;34.78;;
31238;SDS011;17871;31.584;74.450;2022-10-16T07:51:49;85.63;;;36.25;;
31238;SDS011;17871;31.584;74.450;2022-10-16T07:54:19;97.15;;;36.58;;
31238;SDS011;17871;31.584;74.450;2022-10-16T07:56:48;77.93;;;32.47;;
31238;SDS011;17871;31.584;74.450;2022-10-16T07:59:17;83.13;;;31.88;;
31238;SDS011;17871;31.584;74.450;2022-10-16T08:01:46;79.82;;;34.53;;
31238;SDS011;17871;31.584;74.450;2022-10-16T08:04:17;81.22;;;36.92;;
31238;SDS011;17871;31.584;74.450;2022-10-16T08:06:46;66.40;;;26.98;;
31238;SDS011;17871;31.584;74.450;2022-10-16T08:09:15;47.20;;;20.35;;
31238;SDS011;17871;31.584;74.450;2022-10-16T08:11:44;53.97;;;20.02;;
31238;SDS011;17871;31.584;74.450;2022-10-16T08:14:14;53.45;;;18.40;;
31238;SDS011;17871;31.584;74.450;2022-10-16T08:16:43;45.53;;;17.90;;
31238;SDS011;17871;31.584;74.450;2022-10-16T08:19:12;30.45;;;14.20;;
31238;SDS011;17871;31.584;74.450;2022-10-16T08:21:46;53.28;;;15.27;;
31238;SDS011;17871;31.584;74.450;2022-10-16T08:24:16;62.60;;;15.50;;
31238;SDS011;17871;31.584;74.450;2022-10-16T08:26:45;45.83;;;14.88;;
31238;SDS011;17871;31.584;74.450;2022-10-16T08:29:14;47.88;;;17.75;;
31238;SDS011;17871;31.584;74.450;2022-10-16T08:31:43;57.28;;;17.30;;
31238;SDS011;17871;31.584;74.450;2022-10-16T08:34:13;47.78;;;15.85;;
31238;SDS011;17871;31.584;74.450;2022-10-16T08:36:42;63.97;;;17.15;;
31238;SDS011;17871;31.584;74.450;2022-10-16T08:39:12;49.05;;;17.65;;
31238;SDS011;17871;31.584;74.450;2022-10-16T08:44:42;65.60;;;17.02;;
31238;SDS011;17871;31.584;74.450;2022-10-16T08:48:20;55.90;;;16.48;;
31238;SDS011;17871;31.584;74.450;2022-10-16T08:50:28;55.08;;;19.25;;
31238;SDS011;17871;31.584;74.450;2022-10-16T08:53:00;64.47;;;22.77;;
31238;SDS011;17871;31.584;74.450;2022-10-16T08:55:30;68.35;;;24.25;;
31238;SDS011;17871;31.584;74.450;2022-10-16T08:58:26;65.40;;;24.15;;
31238;SDS011;17871;31.584;74.450;2022-10-16T09:01:00;56.33;;;21.33;;
31238;SDS011;17871;31.584;74.450;2022-10-16T09:03:38;58.50;;;20.52;;
31238;SDS011;17871;31.584;74.450;2022-10-16T09:09:34;51.88;;;21.17;;
31238;SDS011;17871;31.584;74.450;2022-10-16T09:20:45;52.15;;;18.55;;
31238;SDS011;17871;31.584;74.450;2022-10-16T09:23:36;55.42;;;20.58;;
31238;SDS011;17871;31.584;74.450;2022-10-16T09:26:09;72.88;;;28.55;;
31238;SDS011;17871;31.584;74.450;2022-10-16T09:28:41;69.97;;;29.05;;
31238;SDS011;17871;31.584;74.450;2022-10-16T09:31:18;85.40;;;29.88;;
31238;SDS011;17871;31.584;74.450;2022-10-16T09:33:51;86.57;;;29.85;;
31238;SDS011;17871;31.584;74.450;2022-10-16T09:36:27;78.60;;;29.90;;
31238;SDS011;17871;31.584;74.450;2022-10-16T09:39:04;88.20;;;22.60;;
31238;SDS011;17871;31.584;74.450;2022-10-16T09:41:35;53.22;;;20.73;;
31238;SDS011;17871;31.584;74.450;2022-10-16T09:44:21;53.90;;;21.13;;
31238;SDS011;17871;31.584;74.450;2022-10-16T09:47:03;58.83;;;24.10;;
31238;SDS011;17871;31.584;74.450;2022-10-16T09:49:33;55.08;;;20.95;;
31238;SDS011;17871;31.584;74.450;2022-10-16T09:52:09;64.25;;;21.90;;
31238;SDS011;17871;31.584;74.450;2022-10-16T09:55:00;58.22;;;21.73;;
31238;SDS011;17871;31.584;74.450;2022-10-16T09:57:31;66.55;;;23.30;;
31238;SDS011;17871;31.584;74.450;2022-10-16T10:00:04;61.53;;;21.35;;
31238;SDS011;17871;31.584;74.450;2022-10-16T10:02:38;60.00;;;21.33;;
31238;SDS011;17871;31.584;74.450;2022-10-16T10:05:17;61.40;;;20.55;;
31238;SDS011;17871;31.584;74.450;2022-10-16T10:07:59;58.60;;;22.60;;
31238;SDS011;17871;31.584;74.450;2022-10-16T10:10:39;53.95;;;20.92;;
31238;SDS011;17871;31.584;74.450;2022-10-16T10:13:21;52.22;;;21.98;;
31238;SDS011;17871;31.584;74.450;2022-10-16T10:15:52;60.47;;;21.92;;
31238;SDS011;17871;31.584;74.450;2022-10-16T10:18:22;64.82;;;21.88;;
31238;SDS011;17871;31.584;74.450;2022-10-16T10:20:58;75.47;;;25.60;;
31238;SDS011;17871;31.584;74.450;2022-10-16T10:23:34;58.53;;;22.83;;
31238;SDS011;17871;31.584;74.450;2022-10-16T10:26:16;70.40;;;23.50;;
31238;SDS011;17871;31.584;74.450;2022-10-16T10:31:48;62.55;;;23.08;;
31238;SDS011;17871;31.584;74.450;2022-10-16T10:34:50;51.90;;;21.73;;
31238;SDS011;17871;31.584;74.450;2022-10-16T10:42:56;68.03;;;22.08;;
31238;SDS011;17871;31.584;74.450;2022-10-16T10:45:36;52.40;;;21.70;;
31238;SDS011;17871;31.584;74.450;2022-10-16T10:48:53;70.65;;;25.45;;
31238;SDS011;17871;31.584;74.450;2022-10-16T10:51:22;51.28;;;21.83;;
31238;SDS011;17871;31.584;74.450;2022-10-16T10:54:17;58.03;;;23.38;;
31238;SDS011;17871;31.584;74.450;2022-10-16T11:02:31;119.28;;;24.92;;
31238;SDS011;17871;31.584;74.450;2022-10-16T11:08:06;59.25;;;21.60;;
31238;SDS011;17871;31.584;74.450;2022-10-16T11:10:47;60.88;;;22.63;;
31238;SDS011;17871;31.584;74.450;2022-10-16T11:13:33;57.97;;;22.00;;
31238;SDS011;17871;31.584;74.450;2022-10-16T11:16:18;62.70;;;22.15;;
31238;SDS011;17871;31.584;74.450;2022-10-16T11:19:28;50.53;;;21.67;;
31238;SDS011;17871;31.584;74.450;2022-10-16T11:22:06;56.35;;;19.75;;
31238;SDS011;17871;31.584;74.450;2022-10-16T11:27:20;61.67;;;19.90;;
31238;SDS011;17871;31.584;74.450;2022-10-16T11:30:05;71.38;;;21.05;;
31238;SDS011;17871;31.584;74.450;2022-10-16T11:35:47;58.67;;;19.02;;
31238;SDS011;17871;31.584;74.450;2022-10-16T11:38:30;50.53;;;21.05;;
31238;SDS011;17871;31.584;74.450;2022-10-16T11:41:03;55.92;;;21.00;;
31238;SDS011;17871;31.584;74.450;2022-10-16T11:43:52;54.03;;;23.02;;
31238;SDS011;17871;31.584;74.450;2022-10-16T11:46:30;51.60;;;21.02;;
31238;SDS011;17871;31.584;74.450;2022-10-16T11:49:26;40.13;;;17.02;;
31238;SDS011;17871;31.584;74.450;2022-10-16T11:54:45;78.30;;;19.98;;
31238;SDS011;17871;31.584;74.450;2022-10-16T11:57:39;53.92;;;18.30;;
31238;SDS011;17871;31.584;74.450;2022-10-16T12:08:40;60.50;;;21.40;;
31238;SDS011;17871;31.584;74.450;2022-10-16T12:14:18;81.88;;;22.58;;
31238;SDS011;17871;31.584;74.450;2022-10-16T12:19:28;66.65;;;24.27;;
31238;SDS011;17871;31.584;74.450;2022-10-16T12:21:59;66.30;;;25.75;;
31238;SDS011;17871;31.584;74.450;2022-10-16T12:24:34;69.18;;;25.23;;
31238;SDS011;17871;31.584;74.450;2022-10-16T12:27:06;65.35;;;26.30;;
31238;SDS011;17871;31.584;74.450;2022-10-16T12:32:37;99.35;;;28.75;;
31238;SDS011;17871;31.584;74.450;2022-10-16T12:35:20;105.03;;;30.65;;
31238;SDS011;17871;31.584;74.450;2022-10-16T12:38:04;116.53;;;31.17;;
31238;SDS011;17871;31.584;74.450;2022-10-16T12:40:36;87.53;;;31.88;;
31238;SDS011;17871;31.584;74.450;2022-10-16T12:43:40;108.38;;;32.95;;
31238;SDS011;17871;31.584;74.450;2022-10-16T12:48:38;85.90;;;33.42;;
31238;SDS011;17871;31.584;74.450;2022-10-16T12:53:59;101.40;;;36.35;;
31238;SDS011;17871;31.584;74.450;2022-10-16T13:07:30;106.10;;;36.60;;
31238;SDS011;17871;31.584;74.450;2022-10-16T13:29:07;93.20;;;40.10;;
31238;SDS011;17871;31.584;74.450;2022-10-16T13:31:37;103.57;;;41.78;;
31238;SDS011;17871;31.584;74.450;2022-10-16T13:34:10;109.15;;;42.47;;
31238;SDS011;17871;31.584;74.450;2022-10-16T13:36:47;95.20;;;40.35;;
31238;SDS011;17871;31.584;74.450;2022-10-16T13:44:48;101.82;;;37.45;;
31238;SDS011;17871;31.584;74.450;2022-10-16T13:47:20;110.15;;;39.45;;
31238;SDS011;17871;31.584;74.450;2022-10-16T13:50:05;126.05;;;39.15;;
31238;SDS011;17871;31.584;74.450;2022-10-16T13:52:39;104.68;;;40.50;;
31238;SDS011;17871;31.584;74.450;2022-10-16T13:55:14;118.45;;;41.83;;
31238;SDS011;17871;31.584;74.450;2022-10-16T13:57:45;127.63;;;46.42;;
31238;SDS011;17871;31.584;74.450;2022-10-16T14:00:25;120.18;;;45.85;;
31238;SDS011;17871;31.584;74.450;2022-10-16T14:03:00;165.45;;;58.92;;
31238;SDS011;17871;31.584;74.450;2022-10-16T14:05:33;153.88;;;65.13;;
31238;SDS011;17871;31.584;74.450;2022-10-16T14:08:02;175.07;;;66.60;;
31238;SDS011;17871;31.584;74.450;2022-10-16T14:10:31;171.90;;;63.45;;
31238;SDS011;17871;31.584;74.450;2022-10-16T14:13:02;153.38;;;62.58;;
31238;SDS011;17871;31.584;74.450;2022-10-16T14:15:34;166.65;;;65.43;;
31238;SDS011;17871;31.584;74.450;2022-10-16T14:18:05;168.95;;;61.75;;
31238;SDS011;17871;31.584;74.450;2022-10-16T14:20:37;164.48;;;60.13;;
31238;SDS011;17871;31.584;74.450;2022-10-16T14:23:52;146.82;;;60.08;;
31238;SDS011;17871;31.584;74.450;2022-10-16T14:28:43;179.63;;;54.22;;
31238;SDS011;17871;31.584;74.450;2022-10-16T14:31:27;144.38;;;53.28;;
31238;SDS011;17871;31.584;74.450;2022-10-16T14:34:00;155.48;;;53.22;;
31238;SDS011;17871;31.584;74.450;2022-10-16T14:36:29;152.05;;;50.92;;
31238;SDS011;17871;31.584;74.450;2022-10-16T14:39:13;149.98;;;53.03;;
31238;SDS011;17871;31.584;74.450;2022-10-16T14:41:49;161.95;;;55.65;;
31238;SDS011;17871;31.584;74.450;2022-10-16T14:44:26;146.55;;;54.88;;
31238;SDS011;17871;31.584;74.450;2022-10-16T14:47:12;175.68;;;56.35;;
31238;SDS011;17871;31.584;74.450;2022-10-16T14:49:44;151.48;;;55.63;;
31238;SDS011;17871;31.584;74.450;2022-10-16T14:52:14;152.73;;;56.30;;
31238;SDS011;17871;31.584;74.450;2022-10-16T14:54:43;137.90;;;52.67;;
31238;SDS011;17871;31.584;74.450;2022-10-16T14:57:23;149.98;;;55.47;;
31238;SDS011;17871;31.584;74.450;2022-10-16T14:59:56;141.63;;;55.80;;
31238;SDS011;17871;31.584;74.450;2022-10-16T15:07:45;170.48;;;56.97;;
31238;SDS011;17871;31.584;74.450;2022-10-16T15:10:16;161.85;;;56.90;;
31238;SDS011;17871;31.584;74.450;2022-10-16T15:12:47;183.10;;;57.00;;
31238;SDS011;17871;31.584;74.450;2022-10-16T15:17:55;165.18;;;59.65;;
31238;SDS011;17871;31.584;74.450;2022-10-16T15:20:25;170.57;;;57.75;;
31238;SDS011;17871;31.584;74.450;2022-10-16T15:22:57;170.95;;;59.80;;
31238;SDS011;17871;31.584;74.450;2022-10-16T15:28:00;171.55;;;64.05;;
31238;SDS011;17871;31.584;74.450;2022-10-16T15:30:31;184.10;;;68.88;;
31238;SDS011;17871;31.584;74.450;2022-10-16T15:33:03;206.73;;;68.18;;
31238;SDS011;17871;31.584;74.450;2022-10-16T15:35:34;254.53;;;72.97;;
31238;SDS011;17871;31.584;74.450;2022-10-16T15:38:04;207.77;;;68.22;;
31238;SDS011;17871;31.584;74.450;2022-10-16T15:40:34;216.57;;;70.20;;
31238;SDS011;17871;31.584;74.450;2022-10-16T15:43:03;188.45;;;72.82;;
31238;SDS011;17871;31.584;74.450;2022-10-16T15:45:35;191.25;;;64.60;;
31238;SDS011;17871;31.584;74.450;2022-10-16T15:48:04;194.75;;;64.53;;
31238;SDS011;17871;31.584;74.450;2022-10-16T15:50:34;234.10;;;65.45;;
31238;SDS011;17871;31.584;74.450;2022-10-16T15:55:35;235.90;;;65.30;;
31238;SDS011;17871;31.584;74.450;2022-10-16T15:58:06;175.23;;;65.13;;
31238;SDS011;17871;31.584;74.450;2022-10-16T16:00:36;187.48;;;65.00;;
31238;SDS011;17871;31.584;74.450;2022-10-16T16:03:06;181.55;;;62.28;;
31238;SDS011;17871;31.584;74.450;2022-10-16T16:05:39;174.43;;;62.58;;
31238;SDS011;17871;31.584;74.450;2022-10-16T16:08:12;150.00;;;61.88;;
31238;SDS011;17871;31.584;74.450;2022-10-16T16:10:42;157.52;;;60.97;;
31238;SDS011;17871;31.584;74.450;2022-10-16T16:13:11;161.38;;;61.92;;
31238;SDS011;17871;31.584;74.450;2022-10-16T16:15:40;174.68;;;69.22;;
31238;SDS011;17871;31.584;74.450;2022-10-16T16:18:09;158.48;;;64.88;;
31238;SDS011;17871;31.584;74.450;2022-10-16T16:20:38;160.55;;;66.82;;
31238;SDS011;17871;31.584;74.450;2022-10-16T16:23:07;177.20;;;66.55;;
31238;SDS011;17871;31.584;74.450;2022-10-16T16:25:36;161.50;;;62.67;;
31238;SDS011;17871;31.584;74.450;2022-10-16T16:28:06;166.93;;;64.32;;
31238;SDS011;17871;31.584;74.450;2022-10-16T16:30:35;173.10;;;62.85;;
31238;SDS011;17871;31.584;74.450;2022-10-16T16:33:05;160.18;;;65.30;;
31238;SDS011;17871;31.584;74.450;2022-10-16T16:35:34;167.88;;;69.30;;
31238;SDS011;17871;31.584;74.450;2022-10-16T16:38:03;153.90;;;65.53;;
31238;SDS011;17871;31.584;74.450;2022-10-16T16:40:32;160.77;;;67.72;;